createdAt,value
2018-12-19T00:01:45.894Z,97015.84
2018-12-19T00:04:11.783Z,97009.97
2018-12-19T00:06:37.634Z,97008.91
2018-12-19T00:09:05.446Z,97024.71
2018-12-19T00:11:31.315Z,97027.92
2018-12-19T00:13:57.179Z,97022.50
2018-12-19T00:16:23.033Z,97023.36
2018-12-19T00:18:48.890Z,97015.44
2018-12-19T00:21:14.714Z,97023.75
2018-12-19T00:23:40.530Z,97022.09
2018-12-19T00:26:06.387Z,97013.23
2018-12-19T00:28:32.341Z,97007.39
2018-12-19T00:30:58.163Z,97007.66
2018-12-19T00:33:24.054Z,97003.17
2018-12-19T00:35:50.127Z,96999.00
2018-12-19T00:40:48.561Z,97003.82
2018-12-19T00:43:14.398Z,96995.39
2018-12-19T00:45:40.262Z,96987.32
2018-12-19T00:48:06.701Z,96992.95
2018-12-19T00:50:32.569Z,96994.91
2018-12-19T00:52:58.450Z,96999.05
2018-12-19T00:55:24.374Z,96990.81
2018-12-19T00:57:50.342Z,96987.25
2018-12-19T01:00:16.372Z,96981.47
2018-12-19T01:02:42.258Z,96983.04
2018-12-19T01:05:08.098Z,96990.03
2018-12-19T01:07:33.958Z,96988.50
2018-12-19T01:09:59.833Z,96980.66
2018-12-19T01:12:25.666Z,96987.70
2018-12-19T01:14:51.529Z,96980.09
2018-12-19T01:17:17.417Z,96973.95
2018-12-19T01:19:43.291Z,96977.55
2018-12-19T01:22:09.140Z,96984.09
2018-12-19T01:24:34.989Z,96992.63
2018-12-19T01:27:00.862Z,96993.84
2018-12-19T01:29:26.740Z,96996.16
2018-12-19T01:31:52.574Z,96996.41
2018-12-19T01:34:18.412Z,97000.57
2018-12-19T01:36:44.309Z,97002.19
2018-12-19T01:39:10.173Z,97003.91
2018-12-19T01:41:36.053Z,96991.88
2018-12-19T01:44:01.895Z,96983.54
2018-12-19T01:46:27.769Z,96979.27
2018-12-19T01:48:53.605Z,96984.47
2018-12-19T01:51:19.802Z,96978.12
2018-12-19T01:53:45.858Z,96981.67
2018-12-19T01:56:11.749Z,96979.34
2018-12-19T01:58:37.598Z,96974.34
2018-12-19T02:01:03.441Z,96973.23
2018-12-19T02:03:29.349Z,96973.26
2018-12-19T02:05:55.203Z,96976.84
2018-12-19T02:08:21.044Z,96970.77
2018-12-19T02:10:46.966Z,96978.05
2018-12-19T02:13:12.817Z,96984.28
2018-12-19T02:15:38.662Z,96978.23
2018-12-19T02:18:04.629Z,96973.73
2018-12-19T02:20:30.471Z,96969.73
2018-12-19T02:22:56.342Z,96971.55
2018-12-19T02:25:22.234Z,96957.10
2018-12-19T02:27:48.102Z,96957.17
2018-12-19T02:30:14.033Z,96952.05
2018-12-19T02:32:39.907Z,96957.58
2018-12-19T02:35:05.750Z,96952.16
2018-12-19T02:37:31.699Z,96950.78
2018-12-19T02:39:57.547Z,96953.48
2018-12-19T02:42:23.397Z,96949.31
2018-12-19T02:44:49.362Z,96952.87
2018-12-19T02:47:15.233Z,96948.73
2018-12-19T02:49:41.098Z,96943.28
2018-12-19T02:52:06.950Z,96934.73
2018-12-19T02:54:32.816Z,96932.38
2018-12-19T02:56:58.685Z,96948.08
2018-12-19T02:59:24.547Z,96941.05
2018-12-19T03:01:50.409Z,96938.91
2018-12-19T03:04:16.270Z,96931.38
2018-12-19T03:06:42.120Z,96926.42
2018-12-19T03:09:07.981Z,96925.52
2018-12-19T03:11:33.855Z,96923.11
2018-12-19T03:13:59.809Z,96923.78
2018-12-19T03:16:25.776Z,96915.07
2018-12-19T03:18:51.698Z,96917.97
2018-12-19T03:21:17.520Z,96912.74
2018-12-19T03:23:43.359Z,96911.15
2018-12-19T03:26:09.207Z,96908.47
2018-12-19T03:28:35.116Z,96908.47
2018-12-19T03:31:00.948Z,96909.92
2018-12-19T03:33:26.899Z,96923.53
2018-12-19T03:35:52.788Z,96924.08
2018-12-19T03:38:23.659Z,96923.75
2018-12-19T03:40:49.553Z,96918.75
2018-12-19T03:43:15.400Z,96924.74
2018-12-19T03:45:41.254Z,96928.13
2018-12-19T03:48:09.127Z,96926.27
2018-12-19T03:50:34.993Z,96930.86
2018-12-19T03:53:00.839Z,96929.76
2018-12-19T03:55:26.701Z,96933.03
2018-12-19T03:57:52.694Z,96931.92
2018-12-19T04:00:18.538Z,96932.45
2018-12-19T04:02:44.451Z,96926.48
2018-12-19T04:05:10.330Z,96919.78
2018-12-19T04:07:36.184Z,96921.47
2018-12-19T04:10:03.807Z,96924.61
2018-12-19T04:12:29.779Z,96923.70
2018-12-19T04:14:55.653Z,96924.80
2018-12-19T04:17:21.499Z,96934.08
2018-12-19T04:19:54.483Z,96919.47
2018-12-19T04:22:20.367Z,96923.41
2018-12-19T04:27:39.097Z,96926.27
2018-12-19T04:30:05.005Z,96933.52
2018-12-19T04:32:31.266Z,96935.63
2018-12-19T04:34:57.113Z,96944.20
2018-12-19T04:37:22.955Z,96939.88
2018-12-19T04:39:48.964Z,96926.81
2018-12-19T04:42:14.817Z,96922.83
2018-12-19T04:44:47.615Z,96918.06
2018-12-19T04:47:13.461Z,96918.27
2018-12-19T04:49:39.326Z,96917.91
2018-12-19T04:52:05.156Z,96926.97
2018-12-19T04:54:31.156Z,96921.35
2018-12-19T04:56:57.017Z,96916.95
2018-12-19T04:59:22.903Z,96916.44
2018-12-19T05:01:48.757Z,96904.20
2018-12-19T05:04:14.652Z,96909.13
2018-12-19T05:06:40.548Z,96913.71
2018-12-19T05:09:06.737Z,96907.31
2018-12-19T05:11:33.198Z,96917.12
2018-12-19T05:13:59.042Z,96917.30
2018-12-19T05:16:24.946Z,96914.62
2018-12-19T05:18:50.821Z,96908.13
2018-12-19T05:21:23.624Z,96493.84
2018-12-19T05:23:49.587Z,96902.61
2018-12-19T05:26:15.503Z,96906.87
2018-12-19T05:28:41.394Z,96924.45
2018-12-19T05:31:07.266Z,96923.49
2018-12-19T05:33:33.106Z,96937.59
2018-12-19T05:35:58.975Z,96923.95
2018-12-19T05:38:24.810Z,96922.47
2018-12-19T05:40:50.695Z,96916.73
2018-12-19T05:43:16.733Z,96927.99
2018-12-19T05:45:42.598Z,96935.78
2018-12-19T05:48:08.458Z,96935.27
2018-12-19T05:50:34.586Z,96931.09
2018-12-19T05:53:00.443Z,96937.62
2018-12-19T05:55:26.290Z,96944.02
2018-12-19T05:57:52.178Z,96943.41
2018-12-19T06:00:18.054Z,96937.25
2018-12-19T06:02:43.914Z,96939.73
2018-12-19T06:05:09.782Z,96947.48
2018-12-19T06:07:35.618Z,96933.72
2018-12-19T06:10:01.620Z,96925.52
2018-12-19T06:12:27.481Z,96928.27
2018-12-19T06:14:53.359Z,96925.27
2018-12-19T06:17:19.369Z,96926.75
2018-12-19T06:19:45.324Z,96911.88
2018-12-19T06:22:11.190Z,96904.42
2018-12-19T06:24:37.095Z,96913.17
2018-12-19T06:27:02.971Z,96910.66
2018-12-19T06:29:28.906Z,96903.14
2018-12-19T06:31:54.814Z,96914.83
2018-12-19T06:34:20.687Z,96909.24
2018-12-19T06:36:46.584Z,96900.85
2018-12-19T06:39:12.450Z,96893.88
2018-12-19T06:41:38.494Z,96896.66
2018-12-19T06:44:04.322Z,96896.66
2018-12-19T06:46:30.198Z,96899.86
2018-12-19T06:48:56.041Z,96906.41
2018-12-19T06:51:21.917Z,96892.73
2018-12-19T06:53:47.769Z,96888.81
2018-12-19T06:56:13.709Z,96882.56
2018-12-19T06:58:39.574Z,96885.11
2018-12-19T07:01:05.429Z,96899.56
2018-12-19T07:03:31.306Z,96899.98
2018-12-19T07:05:57.164Z,96891.56
2018-12-19T07:08:23.014Z,96903.25
2018-12-19T07:10:48.902Z,96905.56
2018-12-19T07:13:14.777Z,96905.89
2018-12-19T07:15:40.628Z,96901.34
2018-12-19T07:18:06.466Z,96911.87
2018-12-19T07:20:32.334Z,96932.91
2018-12-19T07:22:58.200Z,96953.34
2018-12-19T07:25:24.126Z,96962.80
2018-12-19T07:27:49.974Z,96973.81
2018-12-19T07:30:15.897Z,96989.39
2018-12-19T07:32:41.773Z,97003.16
2018-12-19T07:35:07.702Z,96995.22
2018-12-19T07:37:33.562Z,96997.65
2018-12-19T07:39:59.446Z,97002.13
2018-12-19T07:42:25.283Z,97004.45
2018-12-19T07:44:51.178Z,96976.81
2018-12-19T07:47:17.010Z,96997.50
2018-12-19T07:49:42.884Z,96998.44
2018-12-19T07:52:08.739Z,97005.02
2018-12-19T07:54:41.473Z,97004.75
2018-12-19T07:57:07.345Z,97001.55
2018-12-19T07:59:33.205Z,96997.53
2018-12-19T08:01:59.097Z,96991.44
2018-12-19T08:04:25.283Z,96990.47
2018-12-19T08:06:52.432Z,96980.88
2018-12-19T08:09:18.442Z,96985.83
2018-12-19T08:11:44.302Z,96971.90
2018-12-19T08:14:10.135Z,96978.88
2018-12-19T08:16:36.159Z,96975.98
2018-12-19T08:19:02.126Z,96973.66
2018-12-19T08:21:27.986Z,96975.95
2018-12-19T08:23:53.853Z,96970.07
2018-12-19T08:26:19.692Z,96973.78
2018-12-19T08:28:45.874Z,96969.31
2018-12-19T08:31:11.717Z,96975.89
2018-12-19T08:33:37.566Z,96977.77
2018-12-19T08:36:03.486Z,96977.34
2018-12-19T08:38:29.363Z,96976.23
2018-12-19T08:40:58.779Z,96969.37
2018-12-19T08:43:23.073Z,96974.92
2018-12-19T08:45:49.354Z,96961.67
2018-12-19T08:48:15.218Z,96963.58
2018-12-19T08:50:41.087Z,96953.95
2018-12-19T08:53:06.943Z,96952.16
2018-12-19T08:55:32.798Z,96959.25
2018-12-19T08:57:58.651Z,96971.75
2018-12-19T09:00:24.539Z,96985.80
2018-12-19T09:02:50.445Z,96991.92
2018-12-19T09:05:16.344Z,96991.56
2018-12-19T09:07:42.230Z,96992.34
2018-12-19T09:10:08.229Z,96985.66
2018-12-19T09:12:34.201Z,96972.67
2018-12-19T09:15:00.580Z,96999.25
2018-12-19T09:17:27.056Z,97007.83
2018-12-19T09:19:53.323Z,96993.52
2018-12-19T09:22:19.336Z,96993.70
2018-12-19T09:24:45.889Z,96998.47
2018-12-19T09:27:11.762Z,97006.28
2018-12-19T09:29:37.628Z,97005.63
2018-12-19T09:32:03.470Z,96998.89
2018-12-19T09:34:29.335Z,96991.61
2018-12-19T09:36:55.277Z,96994.58
2018-12-19T09:39:21.149Z,96999.89
2018-12-19T09:41:47.015Z,96990.86
2018-12-19T09:44:12.890Z,96980.69
2018-12-19T09:46:38.797Z,96983.42
2018-12-19T09:49:04.654Z,96993.20
2018-12-19T09:51:30.614Z,96991.10
2018-12-19T09:53:56.438Z,96977.43
2018-12-19T09:56:22.319Z,96984.59
2018-12-19T09:58:48.150Z,96977.19
2018-12-19T10:01:14.046Z,96967.66
2018-12-19T10:03:39.910Z,96975.69
2018-12-19T10:06:05.776Z,96988.80
2018-12-19T10:08:31.643Z,96989.91
2018-12-19T10:10:57.533Z,96975.67
2018-12-19T10:13:23.386Z,96970.45
2018-12-19T10:18:21.182Z,96976.73
2018-12-19T10:20:47.834Z,96958.39
2018-12-19T10:23:13.721Z,96945.76
2018-12-19T10:25:39.724Z,96961.17
2018-12-19T10:28:05.698Z,96972.23
2018-12-19T10:30:33.563Z,96965.19
2018-12-19T10:32:59.430Z,96956.19
2018-12-19T10:35:25.292Z,96943.13
2018-12-19T10:37:51.161Z,96941.06
2018-12-19T10:40:17.156Z,96943.13
2018-12-19T10:42:43.018Z,96960.45
2018-12-19T10:45:09.120Z,96962.29
2018-12-19T10:47:35.950Z,96961.03
2018-12-19T10:50:02.978Z,96949.89
2018-12-19T10:52:28.950Z,96951.70
2018-12-19T10:54:54.858Z,96956.48
2018-12-19T10:57:20.699Z,96952.76
2018-12-19T10:59:46.594Z,96947.55
2018-12-19T11:02:13.591Z,96955.42
2018-12-19T11:04:39.484Z,96947.87
2018-12-19T11:07:05.357Z,96942.45
2018-12-19T11:09:31.234Z,96937.83
2018-12-19T11:11:58.729Z,96932.11
2018-12-19T11:14:26.535Z,96923.50
2018-12-19T11:16:52.380Z,96914.91
2018-12-19T11:19:18.226Z,96908.06
2018-12-19T11:21:44.082Z,96906.53
2018-12-19T11:24:10.086Z,96922.78
2018-12-19T11:26:36.143Z,96921.69
2018-12-19T11:29:02.862Z,96927.10
2018-12-19T11:31:28.983Z,96928.19
2018-12-19T11:33:54.818Z,96932.93
2018-12-19T11:36:20.680Z,96927.63
2018-12-19T11:38:46.511Z,96924.05
2018-12-19T11:41:12.375Z,96923.82
2018-12-19T11:43:38.208Z,96926.67
2018-12-19T11:46:04.054Z,96927.55
2018-12-19T11:48:29.990Z,96924.66
2018-12-19T11:50:55.826Z,96921.28
2018-12-19T11:53:21.721Z,96924.46
2018-12-19T11:55:47.710Z,96932.03
2018-12-19T11:58:13.568Z,96931.71
2018-12-19T12:00:39.450Z,96921.30
2018-12-19T12:03:05.275Z,96922.59
2018-12-19T12:05:31.134Z,96929.42
2018-12-19T12:07:56.987Z,96928.89
2018-12-19T12:10:22.810Z,96925.42
2018-12-19T12:12:48.679Z,96915.80
2018-12-19T12:15:14.550Z,96910.25
2018-12-19T12:17:40.457Z,96904.77
2018-12-19T12:20:06.535Z,96895.94
2018-12-19T12:22:32.512Z,96886.89
2018-12-19T12:24:58.364Z,96894.09
2018-12-19T12:27:24.248Z,96890.97
2018-12-19T12:29:50.278Z,96882.41
2018-12-19T12:32:16.180Z,96882.28
2018-12-19T12:34:42.019Z,96881.76
2018-12-19T12:37:07.925Z,96873.42
2018-12-19T12:39:33.814Z,96869.78
2018-12-19T12:41:59.691Z,96860.34
2018-12-19T12:44:25.682Z,96874.22
2018-12-19T12:46:51.510Z,96870.37
2018-12-19T12:49:17.398Z,96866.68
2018-12-19T12:51:43.226Z,96858.58
2018-12-19T12:54:09.108Z,96857.56
2018-12-19T12:56:34.967Z,96862.97
2018-12-19T12:59:00.798Z,96863.74
2018-12-19T13:01:26.639Z,96862.11
2018-12-19T13:03:52.531Z,96858.18
2018-12-19T13:06:18.354Z,96852.70
2018-12-19T13:08:44.235Z,96846.08
2018-12-19T13:11:10.187Z,96837.27
2018-12-19T13:13:36.086Z,96831.55
2018-12-19T13:16:02.047Z,96832.87
2018-12-19T13:18:27.871Z,96828.95
2018-12-19T13:20:53.907Z,96830.52
2018-12-19T13:23:19.750Z,96832.61
2018-12-19T13:25:45.678Z,96831.81
2018-12-19T13:28:11.786Z,96825.38
2018-12-19T13:30:37.661Z,96826.11
2018-12-19T13:33:03.510Z,96823.75
2018-12-19T13:35:29.393Z,96824.20
2018-12-19T13:37:55.385Z,96809.87
2018-12-19T13:40:21.277Z,96817.42
2018-12-19T13:42:47.135Z,96817.77
2018-12-19T13:45:12.982Z,96806.23
2018-12-19T13:47:38.877Z,96813.55
2018-12-19T13:50:05.739Z,96809.96
2018-12-19T13:52:31.582Z,96811.17
2018-12-19T13:54:57.458Z,96807.55
2018-12-19T13:57:23.325Z,96801.03
2018-12-19T13:59:49.198Z,96800.00
2018-12-19T14:02:15.069Z,96801.31
2018-12-19T14:04:41.270Z,96794.55
2018-12-19T14:07:08.359Z,96789.12
2018-12-19T14:09:34.464Z,96780.48
2018-12-19T14:12:00.334Z,96783.33
2018-12-19T14:14:26.171Z,96774.50
2018-12-19T14:16:52.098Z,96773.43
2018-12-19T14:19:17.935Z,96777.09
2018-12-19T14:21:43.869Z,96783.59
2018-12-19T14:24:09.753Z,96799.00
2018-12-19T14:26:35.649Z,96805.53
2018-12-19T14:29:01.604Z,96810.50
2018-12-19T14:31:27.438Z,96806.58
2018-12-19T14:33:53.266Z,96802.20
2018-12-19T14:36:19.226Z,96800.39
2018-12-19T14:38:45.087Z,96801.91
2018-12-19T14:41:10.958Z,96814.66
2018-12-19T14:43:36.827Z,96817.32
2018-12-19T14:46:02.679Z,96799.87
2018-12-19T14:48:28.530Z,96803.47
2018-12-19T14:50:54.557Z,96804.56
2018-12-19T14:53:20.426Z,96802.47
2018-12-19T14:55:46.298Z,96792.28
2018-12-19T14:58:12.149Z,96782.91
2018-12-19T15:00:38.006Z,96794.93
2018-12-19T15:03:03.901Z,96785.02
2018-12-19T15:05:29.773Z,96792.25
2018-12-19T15:07:55.686Z,96788.56
2018-12-19T15:10:21.703Z,96786.53
2018-12-19T15:12:47.581Z,96784.71
2018-12-19T15:15:13.452Z,96783.13
2018-12-19T15:17:39.475Z,96785.22
2018-12-19T15:20:05.522Z,96787.31
2018-12-19T15:22:31.497Z,96781.84
2018-12-19T15:24:57.342Z,96780.80
2018-12-19T15:27:23.205Z,96776.13
2018-12-19T15:29:49.085Z,96765.70
2018-12-19T15:32:14.930Z,96768.05
2018-12-19T15:34:40.799Z,96770.13
2018-12-19T15:37:06.674Z,96775.61
2018-12-19T15:39:32.543Z,96772.46
2018-12-19T15:41:58.390Z,96780.02
2018-12-19T15:44:24.273Z,96782.11
2018-12-19T15:46:50.219Z,96781.07
2018-12-19T15:49:16.112Z,96779.82
2018-12-19T15:51:42.031Z,96772.46
2018-12-19T15:54:07.896Z,96763.05
2018-12-19T15:56:33.763Z,96752.39
2018-12-19T15:58:59.669Z,96628.13
2018-12-19T16:01:25.523Z,96755.77
2018-12-19T16:03:51.409Z,96765.44
2018-12-19T16:06:17.319Z,96757.07
2018-12-19T16:08:43.172Z,96757.85
2018-12-19T16:11:09.058Z,96755.03
2018-12-19T16:13:35.032Z,96751.64
2018-12-19T16:16:01.166Z,96739.67
2018-12-19T16:18:27.080Z,96737.33
2018-12-19T16:20:52.926Z,96744.05
2018-12-19T16:23:18.775Z,96737.81
2018-12-19T16:25:44.646Z,96747.95
2018-12-19T16:28:10.519Z,96743.02
2018-12-19T16:30:36.378Z,96742.23
2018-12-19T16:33:02.218Z,96746.66
2018-12-19T16:35:28.178Z,96735.47
2018-12-19T16:37:54.029Z,96737.09
2018-12-19T16:40:19.969Z,96742.55
2018-12-19T16:42:46.173Z,96732.13
2018-12-19T16:45:12.557Z,96734.75
2018-12-19T16:47:38.473Z,96732.66
2018-12-19T16:50:05.144Z,96731.61
2018-12-19T16:52:31.000Z,96735.00
2018-12-19T16:54:56.866Z,96730.33
2018-12-19T16:57:22.732Z,96735.79
2018-12-19T16:59:48.709Z,96735.30
2018-12-19T17:02:14.571Z,96730.09
2018-12-19T17:04:40.448Z,96735.58
2018-12-19T17:07:06.314Z,96742.59
2018-12-19T17:09:32.150Z,96736.35
2018-12-19T17:11:58.027Z,96728.03
2018-12-19T17:14:23.908Z,96735.89
2018-12-19T17:16:49.798Z,96737.93
2018-12-19T17:19:15.649Z,96735.02
2018-12-19T17:21:41.498Z,96729.52
2018-12-19T17:24:07.334Z,96720.95
2018-12-19T17:26:33.187Z,96729.80
2018-12-19T17:28:59.045Z,96731.86
2018-12-19T17:31:24.915Z,96729.22
2018-12-19T17:33:50.801Z,96727.91
2018-12-19T17:36:16.660Z,96725.30
2018-12-19T17:38:42.532Z,96726.36
2018-12-19T17:41:08.537Z,96730.52
2018-12-19T17:43:34.466Z,96727.66
2018-12-19T17:46:00.310Z,96725.88
2018-12-19T17:48:26.191Z,96730.83
2018-12-19T17:50:52.043Z,96733.19
2018-12-19T17:53:17.910Z,96735.58
2018-12-19T17:55:43.798Z,96741.04
2018-12-19T17:58:09.633Z,96737.18
2018-12-19T18:00:35.762Z,96737.70
2018-12-19T18:03:01.649Z,96739.05
2018-12-19T18:05:27.510Z,96735.88
2018-12-19T18:07:53.362Z,96736.11
2018-12-19T18:10:19.222Z,96732.72
2018-12-19T18:12:45.062Z,96741.05
2018-12-19T18:15:11.013Z,96737.15
2018-12-19T18:17:36.873Z,96735.05
2018-12-19T18:20:04.640Z,96741.31
2018-12-19T18:22:30.474Z,96730.87
2018-12-19T18:24:56.314Z,96737.08
2018-12-19T18:27:22.168Z,96737.09
2018-12-19T18:29:48.119Z,96739.95
2018-12-19T18:32:14.002Z,96736.03
2018-12-19T18:34:39.875Z,96748.73
2018-12-19T18:37:05.791Z,96737.85
2018-12-19T18:39:31.747Z,96636.55
2018-12-19T18:41:57.626Z,96745.08
2018-12-19T18:44:23.670Z,96738.82
2018-12-19T18:46:49.674Z,96744.58
2018-12-19T18:49:15.787Z,96744.63
2018-12-19T18:51:41.763Z,96733.68
2018-12-19T18:54:07.632Z,96735.79
2018-12-19T18:56:33.983Z,96744.63
2018-12-19T18:58:59.929Z,96749.33
2018-12-19T19:01:25.833Z,96739.73
2018-12-19T19:03:51.997Z,96736.57
2018-12-19T19:06:17.967Z,96742.80
2018-12-19T19:08:43.894Z,96735.77
2018-12-19T19:11:09.729Z,96737.53
2018-12-19T19:13:35.693Z,96738.83
2018-12-19T19:16:01.605Z,96725.05
2018-12-19T19:18:27.489Z,96733.89
2018-12-19T19:20:53.333Z,96733.89
2018-12-19T19:23:19.203Z,96734.14
2018-12-19T19:25:45.054Z,96737.75
2018-12-19T19:28:10.917Z,96731.53
2018-12-19T19:30:36.790Z,96735.41
2018-12-19T19:33:02.753Z,96738.83
2018-12-19T19:35:28.739Z,96735.97
2018-12-19T19:37:54.614Z,96730.43
2018-12-19T19:40:20.526Z,96732.01
2018-12-19T19:42:46.668Z,96733.58
2018-12-19T19:45:12.726Z,96727.58
2018-12-19T19:47:38.572Z,96724.46
2018-12-19T19:50:04.771Z,96723.41
2018-12-19T19:52:30.646Z,96719.47
2018-12-19T19:54:56.686Z,96715.03
2018-12-19T19:57:22.637Z,96713.22
2018-12-19T19:59:48.555Z,96714.50
2018-12-19T20:02:14.416Z,96715.53
2018-12-19T20:04:40.513Z,96714.22
2018-12-19T20:07:06.506Z,96711.33
2018-12-19T20:09:32.379Z,96710.59
2018-12-19T20:11:58.225Z,96714.44
2018-12-19T20:14:24.171Z,96707.75
2018-12-19T20:16:56.160Z,96712.16
2018-12-19T20:19:22.051Z,96711.13
2018-12-19T20:21:48.046Z,96705.66
2018-12-19T20:24:13.940Z,96703.58
2018-12-19T20:26:39.833Z,96703.05
2018-12-19T20:29:05.831Z,96710.08
2018-12-19T20:31:31.711Z,96701.45
2018-12-19T20:33:57.540Z,96702.03
2018-12-19T20:36:23.420Z,96695.98
2018-12-19T20:38:49.257Z,96693.42
2018-12-19T20:41:15.123Z,96686.09
2018-12-19T20:43:40.969Z,96687.44
2018-12-19T20:46:06.860Z,96689.48
2018-12-19T20:48:32.707Z,96700.97
2018-12-19T20:50:58.554Z,96695.25
2018-12-19T20:53:24.413Z,96690.33
2018-12-19T20:55:50.370Z,96688.76
2018-12-19T20:58:16.252Z,96690.91
2018-12-19T21:00:42.326Z,96686.17
2018-12-19T21:03:08.188Z,96679.14
2018-12-19T21:05:34.061Z,96683.56
2018-12-19T21:07:59.969Z,96678.87
2018-12-19T21:10:25.810Z,96671.33
2018-12-19T21:12:51.683Z,96671.59
2018-12-19T21:15:17.589Z,96667.70
2018-12-19T21:17:49.645Z,96673.42
2018-12-19T21:20:15.508Z,96676.84
2018-12-19T21:22:41.465Z,96689.91
2018-12-19T21:25:07.419Z,96687.32
2018-12-19T21:27:33.378Z,96686.59
2018-12-19T21:29:59.207Z,96687.84
2018-12-19T21:32:25.047Z,96689.98
2018-12-19T21:34:51.089Z,96695.39
2018-12-19T21:37:17.026Z,96689.41
2018-12-19T21:39:43.023Z,96685.23
2018-12-19T21:42:09.023Z,96684.45
2018-12-19T21:44:34.932Z,96687.58
2018-12-19T21:47:01.013Z,96690.19
2018-12-19T21:49:27.122Z,96682.62
2018-12-19T21:51:53.245Z,96682.36
2018-12-19T21:54:19.177Z,96675.59
2018-12-19T21:56:47.186Z,96681.81
2018-12-19T21:59:13.229Z,96681.59
2018-12-19T22:01:39.203Z,96687.78
2018-12-19T22:04:05.123Z,96682.58
2018-12-19T22:06:31.073Z,96690.65
2018-12-19T22:08:57.511Z,96690.39
2018-12-19T22:11:23.730Z,96686.33
2018-12-19T22:13:50.192Z,96694.66
2018-12-19T22:16:23.185Z,96694.96
2018-12-19T22:18:49.238Z,96695.45
2018-12-19T22:21:15.283Z,96697.53
2018-12-19T22:23:41.332Z,96691.32
2018-12-19T22:26:07.383Z,96699.39
2018-12-19T22:28:33.347Z,96701.47
2018-12-19T22:30:59.195Z,96697.83
2018-12-19T22:33:25.085Z,96699.61
2018-12-19T22:35:51.143Z,96688.67
2018-12-19T22:38:24.129Z,96692.31
2018-12-19T22:40:50.170Z,96690.45
2018-12-19T22:43:26.605Z,96684.47
2018-12-19T22:45:53.017Z,96680.77
2018-12-19T22:48:18.914Z,96673.78
2018-12-19T22:50:44.877Z,96672.70
2018-12-19T22:53:10.847Z,96668.05
2018-12-19T22:55:36.766Z,96663.64
2018-12-19T22:58:02.657Z,96669.88
2018-12-19T23:00:41.512Z,96673.83
2018-12-19T23:03:07.525Z,96673.06
2018-12-19T23:05:39.489Z,96678.48
2018-12-19T23:08:05.401Z,96673.53
2018-12-19T23:10:31.250Z,96669.63
2018-12-19T23:12:57.110Z,96665.98
2018-12-19T23:15:24.239Z,96661.83
2018-12-19T23:17:52.145Z,96666.25
2018-12-19T23:20:18.550Z,96663.90
2018-12-19T23:22:44.549Z,96658.44
2018-12-19T23:25:10.590Z,96664.95
2018-12-19T23:27:36.595Z,96656.57
2018-12-19T23:30:04.968Z,96657.61
2018-12-19T23:32:30.923Z,96649.80
2018-12-19T23:34:56.823Z,96650.84
2018-12-19T23:37:22.962Z,96645.38
2018-12-19T23:39:48.913Z,96648.75
2018-12-19T23:42:14.909Z,96646.94
2018-12-19T23:44:40.999Z,96637.53
2018-12-19T23:47:07.025Z,96640.17
2018-12-19T23:49:32.931Z,96639.41
2018-12-19T23:51:58.861Z,96637.32
2018-12-19T23:54:29.073Z,96640.17
2018-12-19T23:56:52.564Z,96641.73
2018-12-19T23:59:18.643Z,96637.62
